createdAt,value
2022-08-09T00:01:43.210Z,20.76
2022-08-09T00:04:25.180Z,20.72
2022-08-09T00:07:10.439Z,20.70
2022-08-09T00:09:39.504Z,20.68
2022-08-09T00:12:22.422Z,20.66
2022-08-09T00:14:56.747Z,20.62
2022-08-09T00:18:07.696Z,20.60
2022-08-09T00:20:15.329Z,20.57
2022-08-09T00:22:44.958Z,20.54
2022-08-09T00:25:15.790Z,20.51
2022-08-09T00:27:53.371Z,20.46
2022-08-09T00:30:26.037Z,20.41
2022-08-09T00:32:55.459Z,20.39
2022-08-09T00:35:24.005Z,20.36
2022-08-09T00:37:52.369Z,20.31
2022-08-09T00:40:22.469Z,20.28
2022-08-09T00:44:14.339Z,20.26
2022-08-09T00:45:53.790Z,20.22
2022-08-09T00:48:22.518Z,20.18
2022-08-09T00:50:52.407Z,20.15
2022-08-09T00:53:24.358Z,20.16
2022-08-09T00:56:05.049Z,20.12
2022-08-09T00:58:36.765Z,20.06
2022-08-09T01:01:15.868Z,20.04
2022-08-09T01:03:54.964Z,19.99
2022-08-09T01:06:54.429Z,19.96
2022-08-09T01:09:36.744Z,19.90
2022-08-09T01:12:14.342Z,19.86
2022-08-09T01:14:53.050Z,19.84
2022-08-09T01:17:30.557Z,19.82
2022-08-09T01:20:06.490Z,19.78
2022-08-09T01:22:58.764Z,19.75
2022-08-09T01:25:58.491Z,19.70
2022-08-09T01:28:28.715Z,19.70
2022-08-09T01:31:02.366Z,19.67
2022-08-09T01:33:41.200Z,19.65
2022-08-09T01:36:15.138Z,19.62
2022-08-09T01:38:48.895Z,19.58
2022-08-09T01:41:25.954Z,19.57
2022-08-09T01:43:59.890Z,19.54
2022-08-09T01:46:32.458Z,19.53
2022-08-09T01:49:10.215Z,19.49
2022-08-09T01:51:44.615Z,19.45
2022-08-09T01:54:25.366Z,19.43
2022-08-09T01:56:58.444Z,19.39
2022-08-09T01:59:50.907Z,19.36
2022-08-09T02:02:30.125Z,19.32
2022-08-09T02:05:05.581Z,19.29
2022-08-09T02:08:35.228Z,19.27
2022-08-09T02:10:39.710Z,19.23
2022-08-09T02:13:13.495Z,19.21
2022-08-09T02:15:48.929Z,19.20
2022-08-09T02:18:20.986Z,19.17
2022-08-09T02:20:56.437Z,19.14
2022-08-09T02:23:43.757Z,19.11
2022-08-09T02:26:24.685Z,19.08
2022-08-09T02:28:59.513Z,19.03
2022-08-09T02:31:35.431Z,19.00
2022-08-09T02:34:38.638Z,18.97
2022-08-09T02:37:06.772Z,18.93
2022-08-09T02:39:42.770Z,18.88
2022-08-09T02:42:19.699Z,18.88
2022-08-09T02:44:58.941Z,18.86
2022-08-09T02:47:34.016Z,18.83
2022-08-09T02:50:26.916Z,18.81
2022-08-09T02:53:01.205Z,18.77
2022-08-09T02:55:46.550Z,18.75
2022-08-09T02:58:32.548Z,18.72
2022-08-09T03:01:10.833Z,18.70
2022-08-09T03:04:17.001Z,18.67
2022-08-09T03:06:31.893Z,18.63
2022-08-09T03:09:03.233Z,18.61
2022-08-09T03:12:06.114Z,18.58
2022-08-09T03:14:28.200Z,18.55
2022-08-09T03:16:58.284Z,18.53
2022-08-09T03:19:52.299Z,18.50
2022-08-09T03:22:30.131Z,18.46
2022-08-09T03:25:26.775Z,18.44
2022-08-09T03:27:52.166Z,18.42
2022-08-09T03:30:29.240Z,18.40
2022-08-09T03:33:11.059Z,18.35
2022-08-09T03:36:12.584Z,18.31
2022-08-09T03:38:41.769Z,18.29
2022-08-09T03:41:14.832Z,18.25
2022-08-09T03:44:03.078Z,18.23
2022-08-09T03:46:33.807Z,18.21
2022-08-09T03:49:08.277Z,18.19
2022-08-09T03:51:55.267Z,18.17
2022-08-09T03:54:31.154Z,18.14
2022-08-09T03:57:04.488Z,18.13
2022-08-09T03:59:52.928Z,18.09
2022-08-09T04:02:26.911Z,18.07
2022-08-09T04:04:58.636Z,18.05
2022-08-09T04:07:47.508Z,18.03
2022-08-09T04:10:20.986Z,18.02
2022-08-09T04:13:01.336Z,18.01
2022-08-09T04:16:17.359Z,17.98
2022-08-09T04:18:21.889Z,17.97
2022-08-09T04:20:51.472Z,17.96
2022-08-09T04:23:23.496Z,17.94
2022-08-09T04:25:53.933Z,17.95
2022-08-09T04:28:33.102Z,17.96
2022-08-09T04:31:09.548Z,17.93
2022-08-09T04:33:47.229Z,17.92
2022-08-09T04:36:28.038Z,17.91
2022-08-09T04:39:00.604Z,17.91
2022-08-09T04:41:32.755Z,17.92
2022-08-09T04:44:06.397Z,17.90
2022-08-09T04:46:58.193Z,17.92
2022-08-09T04:49:52.295Z,17.92
2022-08-09T04:52:26.082Z,17.93
2022-08-09T04:55:04.226Z,17.96
2022-08-09T04:57:58.401Z,17.97
2022-08-09T05:00:31.777Z,17.99
2022-08-09T05:03:04.522Z,18.03
2022-08-09T05:06:04.472Z,18.05
2022-08-09T05:08:35.545Z,18.07
2022-08-09T05:11:07.691Z,18.11
2022-08-09T05:13:38.732Z,18.15
2022-08-09T05:16:08.959Z,18.17
2022-08-09T05:18:57.362Z,18.20
2022-08-09T05:21:30.538Z,18.22
2022-08-09T05:24:06.760Z,18.25
2022-08-09T05:26:45.656Z,18.29
2022-08-09T05:29:21.183Z,18.33
2022-08-09T05:31:57.462Z,18.36
2022-08-09T05:34:30.578Z,18.42
2022-08-09T05:37:02.468Z,18.48
2022-08-09T05:39:36.454Z,18.54
2022-08-09T05:42:17.273Z,18.62
2022-08-09T05:45:02.360Z,18.72
2022-08-09T05:47:33.270Z,18.82
2022-08-09T05:50:30.150Z,18.88
2022-08-09T05:52:53.452Z,19.03
2022-08-09T05:55:24.077Z,19.12
2022-08-09T05:57:56.475Z,19.24
2022-08-09T06:00:26.575Z,19.37
2022-08-09T06:02:57.989Z,19.49
2022-08-09T06:05:49.766Z,19.61
2022-08-09T06:08:19.618Z,19.74
2022-08-09T06:10:53.384Z,19.85
2022-08-09T06:13:23.651Z,19.98
2022-08-09T06:15:53.711Z,20.11
2022-08-09T06:18:24.013Z,20.25
2022-08-09T06:20:57.107Z,20.36
2022-08-09T06:23:55.197Z,20.53
2022-08-09T06:26:21.121Z,20.65
2022-08-09T06:29:00.190Z,20.79
2022-08-09T06:31:30.697Z,20.92
2022-08-09T06:33:59.974Z,21.08
2022-08-09T06:36:30.002Z,21.23
2022-08-09T06:38:58.715Z,21.37
2022-08-09T06:42:01.184Z,21.51
2022-08-09T06:44:20.542Z,21.67
2022-08-09T06:46:55.369Z,21.83
2022-08-09T06:49:45.163Z,21.99
2022-08-09T06:52:15.899Z,22.14
2022-08-09T06:54:44.685Z,22.31
2022-08-09T06:57:13.364Z,22.45
2022-08-09T07:00:52.251Z,22.60
2022-08-09T07:02:32.417Z,22.74
2022-08-09T07:05:01.946Z,22.90
2022-08-09T07:08:00.932Z,23.03
2022-08-09T07:10:29.402Z,23.15
2022-08-09T07:12:58.384Z,23.30
2022-08-09T07:15:54.103Z,23.42
2022-08-09T07:18:17.329Z,23.57
2022-08-09T07:20:47.778Z,23.71
2022-08-09T07:23:18.114Z,23.87
2022-08-09T07:25:52.522Z,23.97
2022-08-09T07:28:34.684Z,24.11
2022-08-09T07:31:06.127Z,24.23
2022-08-09T07:33:53.011Z,24.36
2022-08-09T07:36:23.492Z,24.51
2022-08-09T07:39:00.574Z,24.66
2022-08-09T07:41:32.917Z,24.81
2022-08-09T07:44:07.262Z,24.98
2022-08-09T07:46:36.969Z,25.12
2022-08-09T07:49:08.323Z,25.24
2022-08-09T07:52:05.448Z,25.41
2022-08-09T07:54:32.366Z,25.55
2022-08-09T07:57:00.842Z,25.71
2022-08-09T07:59:45.466Z,25.85
2022-08-09T08:02:19.942Z,26.01
2022-08-09T08:04:49.422Z,26.15
2022-08-09T08:08:42.468Z,26.30
2022-08-09T08:10:11.715Z,26.47
2022-08-09T08:12:45.120Z,26.59
2022-08-09T08:15:17.197Z,26.75
2022-08-09T08:17:54.804Z,26.89
2022-08-09T08:20:28.724Z,27.06
2022-08-09T08:23:01.452Z,27.20
2022-08-09T08:25:44.650Z,27.31
2022-08-09T08:28:15.507Z,27.49
2022-08-09T08:30:47.656Z,27.63
2022-08-09T08:33:22.881Z,27.77
2022-08-09T08:36:00.286Z,27.93
2022-08-09T08:38:29.901Z,28.08
2022-08-09T08:40:59.653Z,28.23
2022-08-09T08:43:28.445Z,28.41
2022-08-09T08:46:24.876Z,28.50
2022-08-09T08:48:53.644Z,28.60
2022-08-09T08:51:23.296Z,28.76
2022-08-09T08:54:04.287Z,28.87
2022-08-09T08:56:37.629Z,28.92
2022-08-09T08:59:19.320Z,29.07
2022-08-09T09:01:52.139Z,29.17
2022-08-09T09:04:27.670Z,29.26
2022-08-09T09:06:59.821Z,29.37
2022-08-09T09:09:41.183Z,29.49
2022-08-09T09:12:21.255Z,29.63
2022-08-09T09:14:53.038Z,29.70
2022-08-09T09:17:21.665Z,29.79
2022-08-09T09:19:52.224Z,29.86
2022-08-09T09:22:26.828Z,29.92
2022-08-09T09:26:01.083Z,30.01
2022-08-09T09:28:05.566Z,30.08
2022-08-09T09:30:40.660Z,30.14
2022-08-09T09:33:15.549Z,30.21
2022-08-09T09:36:02.805Z,30.25
2022-08-09T09:38:47.900Z,30.31
2022-08-09T09:41:49.280Z,30.38
2022-08-09T09:44:27.846Z,30.49
2022-08-09T09:47:07.588Z,30.62
2022-08-09T09:49:56.237Z,30.78
2022-08-09T09:52:36.376Z,30.89
2022-08-09T09:55:27.818Z,31.02
2022-08-09T09:58:19.103Z,31.13
2022-08-09T10:00:52.794Z,31.26
2022-08-09T10:03:56.245Z,31.33
2022-08-09T10:06:27.662Z,31.39
2022-08-09T10:09:11.693Z,31.43
2022-08-09T10:12:12.020Z,31.50
2022-08-09T10:14:47.830Z,31.60
2022-08-09T10:17:55.064Z,31.67
2022-08-09T10:20:27.272Z,31.70
2022-08-09T10:23:21.788Z,31.78
2022-08-09T10:26:08.055Z,31.87
2022-08-09T10:28:41.860Z,31.96
2022-08-09T10:34:11.033Z,32.06
2022-08-09T10:36:56.985Z,32.04
2022-08-09T10:39:27.047Z,31.99
2022-08-09T10:41:58.485Z,31.99
2022-08-09T10:44:30.510Z,32.02
2022-08-09T10:48:16.592Z,32.06
2022-08-09T10:50:30.720Z,32.07
2022-08-09T10:53:10.056Z,32.16
2022-08-09T10:55:58.324Z,32.28
2022-08-09T10:58:34.983Z,32.33
2022-08-09T11:03:05.668Z,32.45
2022-08-09T11:04:19.699Z,32.49
2022-08-09T11:07:57.749Z,32.51
2022-08-09T11:10:18.327Z,32.54
2022-08-09T11:13:21.728Z,32.49
2022-08-09T11:16:40.886Z,32.47
2022-08-09T11:19:11.420Z,32.43
2022-08-09T11:22:16.571Z,32.43
2022-08-09T11:25:10.206Z,32.45
2022-08-09T11:28:02.357Z,32.54
2022-08-09T11:30:36.514Z,32.60
2022-08-09T11:33:13.091Z,32.68
2022-08-09T11:35:50.168Z,32.80
2022-08-09T11:38:32.721Z,32.90
2022-08-09T11:41:06.391Z,32.95
2022-08-09T11:43:44.443Z,33.00
2022-08-09T11:46:13.312Z,33.06
2022-08-09T11:48:59.015Z,33.08
2022-08-09T11:53:02.201Z,33.14
2022-08-09T11:54:28.634Z,33.17
2022-08-09T11:58:00.382Z,33.18
2022-08-09T12:00:30.966Z,33.23
2022-08-09T12:03:31.812Z,33.28
2022-08-09T12:05:54.997Z,33.32
2022-08-09T12:08:25.173Z,33.37
2022-08-09T12:10:56.229Z,33.47
2022-08-09T12:14:08.351Z,33.53
2022-08-09T12:16:37.862Z,33.62
2022-08-09T12:19:11.390Z,33.68
2022-08-09T12:21:50.643Z,33.73
2022-08-09T12:24:23.904Z,33.79
2022-08-09T12:29:11.080Z,33.81
2022-08-09T12:30:00.121Z,33.83
2022-08-09T12:32:48.468Z,33.89
2022-08-09T12:35:21.726Z,33.92
2022-08-09T12:37:53.824Z,33.94
2022-08-09T12:40:26.867Z,33.96
2022-08-09T12:42:56.448Z,33.95
2022-08-09T12:45:32.422Z,33.94
2022-08-09T12:48:04.979Z,33.97
2022-08-09T12:50:36.196Z,33.96
2022-08-09T12:53:17.660Z,34.05
2022-08-09T12:56:13.814Z,34.09
2022-08-09T12:58:43.005Z,34.12
2022-08-09T13:01:26.595Z,34.11
2022-08-09T13:03:59.820Z,34.18
2022-08-09T13:06:33.910Z,34.23
2022-08-09T13:09:10.432Z,34.25
2022-08-09T13:11:43.932Z,34.29
2022-08-09T13:14:42.958Z,34.31
2022-08-09T13:17:08.397Z,34.22
2022-08-09T13:20:10.451Z,34.18
2022-08-09T13:22:45.536Z,34.20
2022-08-09T13:25:18.578Z,34.19
2022-08-09T13:27:54.671Z,34.21
2022-08-09T13:30:50.129Z,34.22
2022-08-09T13:33:53.086Z,34.17
2022-08-09T13:36:38.818Z,34.19
2022-08-09T13:39:31.078Z,34.21
2022-08-09T13:42:00.997Z,34.20
2022-08-09T13:44:30.808Z,34.23
2022-08-09T13:47:29.828Z,34.25
2022-08-09T13:49:57.237Z,34.24
2022-08-09T13:52:30.302Z,34.24
2022-08-09T13:55:04.403Z,34.22
2022-08-09T13:57:39.757Z,34.21
2022-08-09T14:00:13.903Z,34.21
2022-08-09T14:03:02.292Z,34.26
2022-08-09T14:05:58.732Z,34.25
2022-08-09T14:08:23.393Z,34.27
2022-08-09T14:10:53.294Z,34.23
2022-08-09T14:14:15.286Z,34.18
2022-08-09T14:16:17.249Z,34.14
2022-08-09T14:18:50.614Z,34.10
2022-08-09T14:21:23.262Z,34.09
2022-08-09T14:23:56.529Z,34.06
2022-08-09T14:26:31.783Z,34.07
2022-08-09T14:29:08.080Z,34.04
2022-08-09T14:31:55.470Z,34.02
2022-08-09T14:34:30.990Z,34.02
2022-08-09T14:37:07.232Z,34.02
2022-08-09T14:39:45.883Z,34.03
2022-08-09T14:42:30.922Z,34.03
2022-08-09T14:46:55.762Z,34.03
2022-08-09T14:47:58.284Z,34.04
2022-08-09T14:50:30.633Z,34.06
2022-08-09T14:53:00.298Z,34.08
2022-08-09T14:55:31.926Z,34.10
2022-08-09T14:58:03.528Z,34.06
2022-08-09T15:00:36.362Z,34.06
2022-08-09T15:03:07.459Z,34.02
2022-08-09T15:05:38.857Z,33.99
2022-08-09T15:08:10.385Z,33.97
2022-08-09T15:10:39.879Z,33.95
2022-08-09T15:13:08.660Z,33.91
2022-08-09T15:15:39.769Z,33.91
2022-08-09T15:18:14.522Z,33.85
2022-08-09T15:21:54.616Z,33.81
2022-08-09T15:24:02.788Z,33.76
2022-08-09T15:26:31.420Z,33.73
2022-08-09T15:29:04.785Z,33.68
2022-08-09T15:31:41.070Z,33.66
2022-08-09T15:34:31.680Z,33.66
2022-08-09T15:37:04.224Z,33.64
2022-08-09T15:39:43.985Z,33.66
2022-08-09T15:42:21.940Z,33.66
2022-08-09T15:44:51.061Z,33.67
2022-08-09T15:47:22.609Z,33.64
2022-08-09T15:50:05.375Z,33.63
2022-08-09T15:52:36.183Z,33.57
2022-08-09T15:55:07.237Z,33.53
2022-08-09T15:57:44.423Z,33.51
2022-08-09T16:00:25.960Z,33.42
2022-08-09T16:02:57.182Z,33.36
2022-08-09T16:05:47.540Z,33.32
2022-08-09T16:08:30.527Z,33.27
2022-08-09T16:11:01.955Z,33.22
2022-08-09T16:14:03.883Z,33.21
2022-08-09T16:16:19.726Z,33.14
2022-08-09T16:18:49.899Z,33.14
2022-08-09T16:21:25.660Z,33.10
2022-08-09T16:23:58.540Z,33.08
2022-08-09T16:26:35.485Z,33.04
2022-08-09T16:29:11.307Z,33.00
2022-08-09T16:32:17.662Z,32.96
2022-08-09T16:34:55.464Z,32.89
2022-08-09T16:37:54.470Z,32.84
2022-08-09T16:40:13.692Z,32.77
2022-08-09T16:42:45.569Z,32.72
2022-08-09T16:45:18.585Z,32.69
2022-08-09T16:48:38.470Z,32.61
2022-08-09T16:50:39.097Z,32.52
2022-08-09T16:53:08.884Z,32.44
2022-08-09T16:55:58.317Z,32.38
2022-08-09T16:58:26.419Z,32.33
2022-08-09T17:00:55.168Z,32.26
2022-08-09T17:03:23.763Z,32.21
2022-08-09T17:06:06.718Z,32.16
2022-08-09T17:08:44.381Z,32.03
2022-08-09T17:11:32.846Z,31.92
2022-08-09T17:14:25.447Z,31.85
2022-08-09T17:16:55.387Z,31.72
2022-08-09T17:19:23.849Z,31.67
2022-08-09T17:21:57.054Z,31.59
2022-08-09T17:24:30.549Z,31.50
2022-08-09T17:26:59.539Z,31.41
2022-08-09T17:29:31.912Z,31.33
2022-08-09T17:32:07.137Z,31.22
2022-08-09T17:35:07.827Z,31.12
2022-08-09T17:37:25.453Z,30.99
2022-08-09T17:39:58.331Z,30.91
2022-08-09T17:42:55.773Z,30.84
2022-08-09T17:45:15.870Z,30.72
2022-08-09T17:48:02.720Z,30.65
2022-08-09T17:50:36.857Z,30.59
2022-08-09T17:53:19.511Z,30.48
2022-08-09T17:55:55.743Z,30.39
2022-08-09T17:58:27.931Z,30.28
2022-08-09T18:00:58.379Z,30.17
2022-08-09T18:03:30.357Z,30.08
2022-08-09T18:06:01.035Z,29.99
2022-08-09T18:08:31.739Z,29.89
2022-08-09T18:11:01.611Z,29.83
2022-08-09T18:13:43.094Z,29.77
2022-08-09T18:16:30.196Z,29.68
2022-08-09T18:19:03.871Z,29.63
2022-08-09T18:21:41.242Z,29.57
2022-08-09T18:24:14.592Z,29.48
2022-08-09T18:26:46.941Z,29.40
2022-08-09T18:30:40.347Z,29.33
2022-08-09T18:32:05.872Z,29.26
2022-08-09T18:34:35.577Z,29.19
2022-08-09T18:37:04.284Z,29.13
2022-08-09T18:39:45.958Z,29.06
2022-08-09T18:42:17.312Z,28.99
2022-08-09T18:44:45.673Z,28.90
2022-08-09T18:47:16.685Z,28.86
2022-08-09T18:49:48.056Z,28.79
2022-08-09T18:52:24.811Z,28.71
2022-08-09T18:55:05.149Z,28.65
2022-08-09T18:57:43.151Z,28.59
2022-08-09T19:00:16.760Z,28.50
2022-08-09T19:02:51.388Z,28.39
2022-08-09T19:05:49.005Z,28.33
2022-08-09T19:08:18.417Z,28.23
2022-08-09T19:10:50.849Z,28.17
2022-08-09T19:13:38.603Z,28.11
2022-08-09T19:16:13.019Z,28.04
2022-08-09T19:18:45.399Z,27.97
2022-08-09T19:21:14.576Z,27.91
2022-08-09T19:24:37.397Z,27.85
2022-08-09T19:26:34.986Z,27.79
2022-08-09T19:29:15.053Z,27.74
2022-08-09T19:31:49.388Z,27.68
2022-08-09T19:34:22.725Z,27.62
2022-08-09T19:36:52.606Z,27.56
2022-08-09T19:39:29.264Z,27.50
2022-08-09T19:42:14.884Z,27.42
2022-08-09T19:44:50.733Z,27.34
2022-08-09T19:47:23.480Z,27.27
2022-08-09T19:50:08.285Z,27.20
2022-08-09T19:52:51.341Z,27.10
2022-08-09T19:55:30.489Z,27.02
2022-08-09T19:58:16.026Z,26.93
2022-08-09T20:00:46.782Z,26.84
2022-08-09T20:04:10.150Z,26.77
2022-08-09T20:06:10.354Z,26.68
2022-08-09T20:08:52.141Z,26.58
2022-08-09T20:11:26.233Z,26.52
2022-08-09T20:13:56.818Z,26.44
2022-08-09T20:16:34.221Z,26.36
2022-08-09T20:19:48.232Z,26.27
2022-08-09T20:22:00.023Z,26.17
2022-08-09T20:24:33.694Z,26.12
2022-08-09T20:27:07.989Z,26.05
2022-08-09T20:29:39.645Z,25.97
2022-08-09T20:32:30.972Z,25.89
2022-08-09T20:34:58.112Z,25.81
2022-08-09T20:38:18.992Z,25.73
2022-08-09T20:40:27.356Z,25.63
2022-08-09T20:43:12.275Z,25.53
2022-08-09T20:45:59.837Z,25.44
2022-08-09T20:48:31.840Z,25.35
2022-08-09T20:51:01.214Z,25.26
2022-08-09T20:53:37.477Z,25.19
2022-08-09T20:56:21.021Z,25.11
2022-08-09T20:58:57.898Z,25.04
2022-08-09T21:01:34.321Z,24.97
2022-08-09T21:05:53.628Z,24.90
2022-08-09T21:07:11.695Z,24.81
2022-08-09T21:09:45.751Z,24.74
2022-08-09T21:12:32.238Z,24.66
2022-08-09T21:15:13.742Z,24.60
2022-08-09T21:18:23.094Z,24.53
2022-08-09T21:20:35.545Z,24.45
2022-08-09T21:23:04.737Z,24.37
2022-08-09T21:25:59.196Z,24.32
2022-08-09T21:28:35.152Z,24.22
2022-08-09T21:31:17.322Z,24.17
2022-08-09T21:33:52.130Z,24.11
2022-08-09T21:36:23.846Z,24.06
2022-08-09T21:38:57.912Z,24.01
2022-08-09T21:42:05.076Z,23.94
2022-08-09T21:44:34.427Z,23.85
2022-08-09T21:47:07.806Z,23.80
2022-08-09T21:49:43.075Z,23.71
2022-08-09T21:52:17.540Z,23.67
2022-08-09T21:54:59.244Z,23.59
2022-08-09T21:57:39.385Z,23.53
2022-08-09T22:00:26.865Z,23.45
2022-08-09T22:03:05.795Z,23.39
2022-08-09T22:05:42.320Z,23.32
2022-08-09T22:08:14.816Z,23.27
2022-08-09T22:11:49.138Z,23.24
2022-08-09T22:13:38.086Z,23.17
2022-08-09T22:16:09.222Z,23.12
2022-08-09T22:18:53.481Z,23.08
2022-08-09T22:21:45.011Z,22.98
2022-08-09T22:24:21.133Z,22.94
2022-08-09T22:26:53.300Z,22.91
2022-08-09T22:29:28.953Z,22.87
2022-08-09T22:32:29.183Z,22.81
2022-08-09T22:35:02.364Z,22.75
2022-08-09T22:37:40.284Z,22.70
2022-08-09T22:40:20.048Z,22.67
2022-08-09T22:42:49.093Z,22.61
2022-08-09T22:48:15.362Z,22.56
2022-08-09T22:48:19.239Z,22.49
2022-08-09T22:50:54.950Z,22.46
2022-08-09T22:53:25.185Z,22.42
2022-08-09T22:56:31.369Z,22.38
2022-08-09T22:58:50.658Z,22.29
2022-08-09T23:01:19.136Z,22.26
2022-08-09T23:04:04.065Z,22.25
2022-08-09T23:06:49.334Z,22.19
2022-08-09T23:09:19.224Z,22.12
2022-08-09T23:11:47.638Z,22.07
2022-08-09T23:14:17.692Z,22.04
2022-08-09T23:17:05.730Z,21.99
2022-08-09T23:20:00.926Z,21.93
2022-08-09T23:22:22.455Z,21.87
2022-08-09T23:24:52.313Z,21.83
2022-08-09T23:27:20.699Z,21.78
2022-08-09T23:29:49.031Z,21.73
2022-08-09T23:32:17.776Z,21.69
2022-08-09T23:34:46.168Z,21.63
2022-08-09T23:37:14.619Z,21.58
2022-08-09T23:39:46.215Z,21.53
2022-08-09T23:42:15.995Z,21.49
2022-08-09T23:44:44.321Z,21.44
2022-08-09T23:47:12.663Z,21.40
2022-08-09T23:49:41.082Z,21.36
2022-08-09T23:52:09.511Z,21.32
2022-08-09T23:54:39.746Z,21.28
2022-08-09T23:57:12.921Z,21.23
